sensor_id;sensor_type;location;lat;lon;timestamp;P1;durP1;ratioP1;P2;durP2;ratioP2
41897;SDS011;27576;53.366;-1.498;2022-11-18T00:00:44;5.03;;;4.53;;
41897;SDS011;27576;53.366;-1.498;2022-11-18T00:03:09;4.50;;;4.13;;
41897;SDS011;27576;53.366;-1.498;2022-11-18T00:05:34;6.47;;;4.40;;
41897;SDS011;27576;53.366;-1.498;2022-11-18T00:08:00;4.50;;;4.10;;
41897;SDS011;27576;53.366;-1.498;2022-11-18T00:10:25;4.68;;;4.28;;
41897;SDS011;27576;53.366;-1.498;2022-11-18T00:12:50;4.70;;;4.30;;
41897;SDS011;27576;53.366;-1.498;2022-11-18T00:15:34;4.55;;;4.15;;
41897;SDS011;27576;53.366;-1.498;2022-11-18T00:18:00;4.45;;;3.97;;
41897;SDS011;27576;53.366;-1.498;2022-11-18T00:20:25;4.40;;;4.10;;
41897;SDS011;27576;53.366;-1.498;2022-11-18T00:22:50;4.57;;;4.05;;
41897;SDS011;27576;53.366;-1.498;2022-11-18T00:25:16;9.20;;;4.85;;
41897;SDS011;27576;53.366;-1.498;2022-11-18T00:27:41;5.07;;;4.60;;
41897;SDS011;27576;53.366;-1.498;2022-11-18T00:30:07;4.68;;;4.28;;
41897;SDS011;27576;53.366;-1.498;2022-11-18T00:32:32;4.72;;;4.32;;
41897;SDS011;27576;53.366;-1.498;2022-11-18T00:34:58;4.75;;;4.35;;
41897;SDS011;27576;53.366;-1.498;2022-11-18T00:37:23;4.97;;;4.57;;
41897;SDS011;27576;53.366;-1.498;2022-11-18T00:39:49;5.50;;;5.00;;
41897;SDS011;27576;53.366;-1.498;2022-11-18T00:42:14;6.03;;;4.35;;
41897;SDS011;27576;53.366;-1.498;2022-11-18T00:44:58;5.20;;;4.70;;
41897;SDS011;27576;53.366;-1.498;2022-11-18T00:47:24;5.32;;;4.65;;
41897;SDS011;27576;53.366;-1.498;2022-11-18T00:49:49;4.85;;;4.45;;
41897;SDS011;27576;53.366;-1.498;2022-11-18T00:52:14;4.20;;;3.78;;
41897;SDS011;27576;53.366;-1.498;2022-11-18T00:54:40;4.93;;;4.43;;
41897;SDS011;27576;53.366;-1.498;2022-11-18T00:57:05;4.43;;;4.03;;
41897;SDS011;27576;53.366;-1.498;2022-11-18T00:59:30;4.05;;;3.70;;
41897;SDS011;27576;53.366;-1.498;2022-11-18T01:01:56;4.25;;;3.83;;
41897;SDS011;27576;53.366;-1.498;2022-11-18T01:04:21;4.32;;;3.40;;
41897;SDS011;27576;53.366;-1.498;2022-11-18T01:06:47;3.47;;;3.17;;
41897;SDS011;27576;53.366;-1.498;2022-11-18T01:09:12;3.22;;;3.03;;
41897;SDS011;27576;53.366;-1.498;2022-11-18T01:11:38;4.25;;;3.30;;
41897;SDS011;27576;53.366;-1.498;2022-11-18T01:14:23;4.65;;;3.40;;
41897;SDS011;27576;53.366;-1.498;2022-11-18T01:16:49;4.70;;;3.65;;
41897;SDS011;27576;53.366;-1.498;2022-11-18T01:19:17;3.40;;;3.10;;
41897;SDS011;27576;53.366;-1.498;2022-11-18T01:21:43;4.28;;;3.65;;
41897;SDS011;27576;53.366;-1.498;2022-11-18T01:24:08;3.58;;;3.33;;
41897;SDS011;27576;53.366;-1.498;2022-11-18T01:26:34;3.88;;;3.53;;
41897;SDS011;27576;53.366;-1.498;2022-11-18T01:28:59;3.83;;;3.47;;
41897;SDS011;27576;53.366;-1.498;2022-11-18T01:31:24;3.50;;;3.20;;
41897;SDS011;27576;53.366;-1.498;2022-11-18T01:33:50;5.35;;;3.22;;
41897;SDS011;27576;53.366;-1.498;2022-11-18T01:36:23;3.45;;;3.20;;
41897;SDS011;27576;53.366;-1.498;2022-11-18T01:38:50;4.13;;;3.72;;
41897;SDS011;27576;53.366;-1.498;2022-11-18T01:41:16;4.20;;;3.80;;
41897;SDS011;27576;53.366;-1.498;2022-11-18T01:44:03;3.85;;;3.00;;
41897;SDS011;27576;53.366;-1.498;2022-11-18T01:46:49;3.15;;;2.85;;
41897;SDS011;27576;53.366;-1.498;2022-11-18T01:49:14;3.75;;;3.42;;
41897;SDS011;27576;53.366;-1.498;2022-11-18T01:51:50;3.50;;;3.20;;
41897;SDS011;27576;53.366;-1.498;2022-11-18T01:54:29;3.80;;;3.40;;
41897;SDS011;27576;53.366;-1.498;2022-11-18T01:56:59;3.67;;;3.38;;
41897;SDS011;27576;53.366;-1.498;2022-11-18T01:59:29;4.38;;;3.97;;
41897;SDS011;27576;53.366;-1.498;2022-11-18T02:01:57;5.63;;;4.35;;
41897;SDS011;27576;53.366;-1.498;2022-11-18T02:04:25;4.20;;;3.90;;
41897;SDS011;27576;53.366;-1.498;2022-11-18T02:06:51;4.05;;;3.75;;
41897;SDS011;27576;53.366;-1.498;2022-11-18T02:09:19;3.80;;;3.50;;
41897;SDS011;27576;53.366;-1.498;2022-11-18T02:11:45;3.95;;;3.65;;
41897;SDS011;27576;53.366;-1.498;2022-11-18T02:14:30;4.43;;;4.03;;
41897;SDS011;27576;53.366;-1.498;2022-11-18T02:30:35;3.03;;;2.63;;
41897;SDS011;27576;53.366;-1.498;2022-11-18T02:33:09;3.65;;;3.22;;
41897;SDS011;27576;53.366;-1.498;2022-11-18T02:35:41;3.25;;;3.03;;
41897;SDS011;27576;53.366;-1.498;2022-11-18T02:38:12;4.90;;;3.50;;
41897;SDS011;27576;53.366;-1.498;2022-11-18T02:40:48;2.95;;;2.75;;
41897;SDS011;27576;53.366;-1.498;2022-11-18T02:43:23;4.53;;;3.08;;
41897;SDS011;27576;53.366;-1.498;2022-11-18T02:45:54;3.90;;;2.90;;
41897;SDS011;27576;53.366;-1.498;2022-11-18T02:48:25;3.03;;;2.72;;
41897;SDS011;27576;53.366;-1.498;2022-11-18T02:50:53;2.85;;;2.30;;
41897;SDS011;27576;53.366;-1.498;2022-11-18T02:53:19;2.67;;;2.40;;
41897;SDS011;27576;53.366;-1.498;2022-11-18T02:55:45;2.30;;;2.20;;
41897;SDS011;27576;53.366;-1.498;2022-11-18T02:58:12;3.53;;;2.22;;
41897;SDS011;27576;53.366;-1.498;2022-11-18T03:00:40;4.85;;;2.15;;
41897;SDS011;27576;53.366;-1.498;2022-11-18T03:08:50;5.60;;;2.20;;
41897;SDS011;27576;53.366;-1.498;2022-11-18T03:11:24;4.47;;;2.30;;
41897;SDS011;27576;53.366;-1.498;2022-11-18T03:16:44;2.72;;;2.47;;
41897;SDS011;27576;53.366;-1.498;2022-11-18T03:27:33;3.75;;;3.00;;
41897;SDS011;27576;53.366;-1.498;2022-11-18T03:30:07;3.53;;;2.70;;
41897;SDS011;27576;53.366;-1.498;2022-11-18T03:32:37;4.07;;;2.60;;
41897;SDS011;27576;53.366;-1.498;2022-11-18T03:35:08;2.25;;;2.05;;
41897;SDS011;27576;53.366;-1.498;2022-11-18T03:37:38;3.33;;;2.10;;
41897;SDS011;27576;53.366;-1.498;2022-11-18T03:40:08;1.83;;;1.73;;
41897;SDS011;27576;53.366;-1.498;2022-11-18T03:42:42;2.83;;;1.92;;
41897;SDS011;27576;53.366;-1.498;2022-11-18T03:45:21;2.70;;;2.15;;
41897;SDS011;27576;53.366;-1.498;2022-11-18T03:50:34;2.97;;;1.88;;
41897;SDS011;27576;53.366;-1.498;2022-11-18T03:53:03;2.00;;;1.80;;
41897;SDS011;27576;53.366;-1.498;2022-11-18T03:55:32;2.50;;;1.90;;
41897;SDS011;27576;53.366;-1.498;2022-11-18T03:58:04;2.90;;;1.70;;
41897;SDS011;27576;53.366;-1.498;2022-11-18T04:00:33;3.58;;;1.50;;
41897;SDS011;27576;53.366;-1.498;2022-11-18T04:03:03;4.40;;;1.50;;
41897;SDS011;27576;53.366;-1.498;2022-11-18T04:05:30;3.28;;;1.80;;
41897;SDS011;27576;53.366;-1.498;2022-11-18T04:08:01;4.50;;;1.40;;
41897;SDS011;27576;53.366;-1.498;2022-11-18T04:10:32;1.48;;;1.27;;
41897;SDS011;27576;53.366;-1.498;2022-11-18T04:13:06;1.50;;;1.40;;
41897;SDS011;27576;53.366;-1.498;2022-11-18T04:15:48;2.40;;;1.55;;
41897;SDS011;27576;53.366;-1.498;2022-11-18T04:18:14;2.00;;;1.42;;
41897;SDS011;27576;53.366;-1.498;2022-11-18T04:20:39;2.85;;;1.17;;
41897;SDS011;27576;53.366;-1.498;2022-11-18T04:23:05;2.00;;;1.40;;
41897;SDS011;27576;53.366;-1.498;2022-11-18T04:25:31;4.63;;;1.25;;
41897;SDS011;27576;53.366;-1.498;2022-11-18T04:27:56;1.85;;;1.27;;
41897;SDS011;27576;53.366;-1.498;2022-11-18T04:30:22;1.65;;;1.27;;
41897;SDS011;27576;53.366;-1.498;2022-11-18T04:32:47;4.90;;;1.50;;
41897;SDS011;27576;53.366;-1.498;2022-11-18T04:35:13;2.97;;;1.10;;
41897;SDS011;27576;53.366;-1.498;2022-11-18T04:37:39;5.63;;;1.70;;
41897;SDS011;27576;53.366;-1.498;2022-11-18T04:40:04;2.42;;;1.15;;
41897;SDS011;27576;53.366;-1.498;2022-11-18T04:42:30;2.97;;;1.38;;
41897;SDS011;27576;53.366;-1.498;2022-11-18T04:44:55;2.22;;;1.50;;
41897;SDS011;27576;53.366;-1.498;2022-11-18T04:47:21;2.25;;;1.50;;
41897;SDS011;27576;53.366;-1.498;2022-11-18T04:49:46;2.22;;;1.10;;
41897;SDS011;27576;53.366;-1.498;2022-11-18T04:52:12;1.60;;;1.02;;
41897;SDS011;27576;53.366;-1.498;2022-11-18T04:54:38;2.55;;;1.30;;
41897;SDS011;27576;53.366;-1.498;2022-11-18T04:57:04;3.75;;;1.35;;
41897;SDS011;27576;53.366;-1.498;2022-11-18T04:59:29;1.92;;;1.65;;
41897;SDS011;27576;53.366;-1.498;2022-11-18T05:01:55;1.60;;;1.50;;
41897;SDS011;27576;53.366;-1.498;2022-11-18T05:04:25;7.07;;;1.63;;
41897;SDS011;27576;53.366;-1.498;2022-11-18T05:06:52;2.22;;;1.10;;
41897;SDS011;27576;53.366;-1.498;2022-11-18T05:09:18;1.45;;;1.10;;
41897;SDS011;27576;53.366;-1.498;2022-11-18T05:11:43;3.95;;;1.35;;
41897;SDS011;27576;53.366;-1.498;2022-11-18T05:14:28;1.23;;;1.10;;
41897;SDS011;27576;53.366;-1.498;2022-11-18T05:16:54;3.42;;;1.15;;
41897;SDS011;27576;53.366;-1.498;2022-11-18T05:19:21;3.38;;;1.10;;
41897;SDS011;27576;53.366;-1.498;2022-11-18T05:21:47;2.60;;;1.02;;
41897;SDS011;27576;53.366;-1.498;2022-11-18T05:24:12;2.92;;;1.13;;
41897;SDS011;27576;53.366;-1.498;2022-11-18T05:26:38;2.33;;;1.30;;
41897;SDS011;27576;53.366;-1.498;2022-11-18T05:29:04;1.52;;;1.00;;
41897;SDS011;27576;53.366;-1.498;2022-11-18T05:31:29;1.77;;;1.17;;
41897;SDS011;27576;53.366;-1.498;2022-11-18T05:33:55;2.22;;;1.17;;
41897;SDS011;27576;53.366;-1.498;2022-11-18T05:36:20;2.08;;;0.90;;
41897;SDS011;27576;53.366;-1.498;2022-11-18T05:38:47;1.75;;;0.90;;
41897;SDS011;27576;53.366;-1.498;2022-11-18T05:41:13;2.47;;;1.27;;
41897;SDS011;27576;53.366;-1.498;2022-11-18T05:43:58;2.90;;;1.65;;
41897;SDS011;27576;53.366;-1.498;2022-11-18T05:46:24;2.53;;;1.20;;
41897;SDS011;27576;53.366;-1.498;2022-11-18T05:48:49;3.95;;;1.40;;
41897;SDS011;27576;53.366;-1.498;2022-11-18T05:51:15;2.42;;;1.08;;
41897;SDS011;27576;53.366;-1.498;2022-11-18T05:53:41;1.80;;;0.80;;
41897;SDS011;27576;53.366;-1.498;2022-11-18T05:56:11;2.35;;;1.00;;
41897;SDS011;27576;53.366;-1.498;2022-11-18T05:58:43;1.63;;;1.00;;
41897;SDS011;27576;53.366;-1.498;2022-11-18T06:01:08;1.05;;;0.85;;
41897;SDS011;27576;53.366;-1.498;2022-11-18T06:03:36;3.97;;;1.00;;
41897;SDS011;27576;53.366;-1.498;2022-11-18T06:06:04;2.38;;;1.10;;
41897;SDS011;27576;53.366;-1.498;2022-11-18T06:08:33;2.92;;;1.13;;
41897;SDS011;27576;53.366;-1.498;2022-11-18T06:11:02;0.82;;;0.82;;
41897;SDS011;27576;53.366;-1.498;2022-11-18T06:13:34;4.53;;;1.27;;
41897;SDS011;27576;53.366;-1.498;2022-11-18T06:16:04;1.92;;;0.88;;
41897;SDS011;27576;53.366;-1.498;2022-11-18T06:18:30;2.63;;;1.00;;
41897;SDS011;27576;53.366;-1.498;2022-11-18T06:20:57;2.15;;;0.93;;
41897;SDS011;27576;53.366;-1.498;2022-11-18T06:23:28;1.40;;;0.88;;
41897;SDS011;27576;53.366;-1.498;2022-11-18T06:25:57;4.53;;;1.20;;
41897;SDS011;27576;53.366;-1.498;2022-11-18T06:28:23;2.25;;;0.98;;
41897;SDS011;27576;53.366;-1.498;2022-11-18T06:30:49;2.60;;;1.20;;
41897;SDS011;27576;53.366;-1.498;2022-11-18T06:33:15;4.60;;;1.05;;
41897;SDS011;27576;53.366;-1.498;2022-11-18T06:35:43;3.25;;;1.20;;
41897;SDS011;27576;53.366;-1.498;2022-11-18T06:38:08;1.00;;;0.90;;
41897;SDS011;27576;53.366;-1.498;2022-11-18T06:40:33;2.45;;;1.15;;
41897;SDS011;27576;53.366;-1.498;2022-11-18T06:43:07;4.32;;;1.30;;
41897;SDS011;27576;53.366;-1.498;2022-11-18T06:45:52;2.17;;;1.10;;
41897;SDS011;27576;53.366;-1.498;2022-11-18T06:48:36;2.78;;;0.80;;
41897;SDS011;27576;53.366;-1.498;2022-11-18T06:51:05;3.63;;;1.27;;
41897;SDS011;27576;53.366;-1.498;2022-11-18T06:53:32;2.58;;;1.20;;
41897;SDS011;27576;53.366;-1.498;2022-11-18T06:56:01;3.58;;;0.95;;
41897;SDS011;27576;53.366;-1.498;2022-11-18T06:58:34;3.22;;;1.23;;
41897;SDS011;27576;53.366;-1.498;2022-11-18T07:01:13;3.63;;;1.08;;
41897;SDS011;27576;53.366;-1.498;2022-11-18T07:03:41;1.98;;;0.77;;
41897;SDS011;27576;53.366;-1.498;2022-11-18T07:06:08;1.60;;;1.10;;
41897;SDS011;27576;53.366;-1.498;2022-11-18T07:08:35;2.65;;;1.00;;
41897;SDS011;27576;53.366;-1.498;2022-11-18T07:11:02;2.08;;;1.08;;
41897;SDS011;27576;53.366;-1.498;2022-11-18T07:13:29;4.00;;;0.85;;
41897;SDS011;27576;53.366;-1.498;2022-11-18T07:16:04;2.03;;;1.15;;
41897;SDS011;27576;53.366;-1.498;2022-11-18T07:18:32;2.08;;;1.05;;
41897;SDS011;27576;53.366;-1.498;2022-11-18T07:21:03;2.55;;;1.10;;
41897;SDS011;27576;53.366;-1.498;2022-11-18T07:23:30;2.20;;;1.42;;
41897;SDS011;27576;53.366;-1.498;2022-11-18T07:25:56;4.28;;;1.55;;
41897;SDS011;27576;53.366;-1.498;2022-11-18T07:28:22;3.58;;;1.30;;
41897;SDS011;27576;53.366;-1.498;2022-11-18T07:30:47;1.33;;;1.00;;
41897;SDS011;27576;53.366;-1.498;2022-11-18T07:33:13;2.80;;;1.30;;
41897;SDS011;27576;53.366;-1.498;2022-11-18T07:35:38;1.48;;;0.98;;
41897;SDS011;27576;53.366;-1.498;2022-11-18T07:38:03;2.35;;;1.40;;
41897;SDS011;27576;53.366;-1.498;2022-11-18T07:40:29;2.78;;;1.20;;
41897;SDS011;27576;53.366;-1.498;2022-11-18T07:42:54;2.72;;;1.08;;
41897;SDS011;27576;53.366;-1.498;2022-11-18T07:45:19;2.92;;;1.20;;
41897;SDS011;27576;53.366;-1.498;2022-11-18T07:47:45;2.47;;;1.10;;
41897;SDS011;27576;53.366;-1.498;2022-11-18T07:50:10;1.95;;;1.23;;
41897;SDS011;27576;53.366;-1.498;2022-11-18T07:52:35;1.88;;;1.05;;
41897;SDS011;27576;53.366;-1.498;2022-11-18T07:55:01;2.88;;;1.08;;
41897;SDS011;27576;53.366;-1.498;2022-11-18T07:57:26;3.10;;;1.13;;
41897;SDS011;27576;53.366;-1.498;2022-11-18T07:59:51;2.60;;;1.10;;
41897;SDS011;27576;53.366;-1.498;2022-11-18T08:02:17;6.90;;;1.45;;
41897;SDS011;27576;53.366;-1.498;2022-11-18T08:04:42;4.20;;;1.25;;
41897;SDS011;27576;53.366;-1.498;2022-11-18T08:07:08;3.22;;;1.17;;
41897;SDS011;27576;53.366;-1.498;2022-11-18T08:09:34;1.90;;;1.52;;
41897;SDS011;27576;53.366;-1.498;2022-11-18T08:11:59;2.95;;;1.20;;
41897;SDS011;27576;53.366;-1.498;2022-11-18T08:14:25;5.05;;;1.55;;
41897;SDS011;27576;53.366;-1.498;2022-11-18T08:16:52;2.45;;;1.00;;
41897;SDS011;27576;53.366;-1.498;2022-11-18T08:19:18;3.85;;;1.48;;
41897;SDS011;27576;53.366;-1.498;2022-11-18T08:21:43;3.67;;;1.00;;
41897;SDS011;27576;53.366;-1.498;2022-11-18T08:24:09;3.92;;;1.10;;
41897;SDS011;27576;53.366;-1.498;2022-11-18T08:26:34;4.32;;;1.23;;
41897;SDS011;27576;53.366;-1.498;2022-11-18T08:29:00;6.78;;;1.60;;
41897;SDS011;27576;53.366;-1.498;2022-11-18T08:31:26;7.80;;;1.75;;
41897;SDS011;27576;53.366;-1.498;2022-11-18T08:33:56;1.95;;;1.20;;
41897;SDS011;27576;53.366;-1.498;2022-11-18T08:36:24;3.83;;;1.30;;
41897;SDS011;27576;53.366;-1.498;2022-11-18T08:38:50;3.13;;;1.30;;
41897;SDS011;27576;53.366;-1.498;2022-11-18T08:41:18;5.45;;;1.90;;
41897;SDS011;27576;53.366;-1.498;2022-11-18T08:43:47;3.60;;;1.60;;
41897;SDS011;27576;53.366;-1.498;2022-11-18T08:46:13;3.58;;;1.25;;
41897;SDS011;27576;53.366;-1.498;2022-11-18T08:48:38;4.07;;;1.55;;
41897;SDS011;27576;53.366;-1.498;2022-11-18T08:51:03;2.47;;;1.50;;
41897;SDS011;27576;53.366;-1.498;2022-11-18T08:53:29;2.15;;;1.20;;
41897;SDS011;27576;53.366;-1.498;2022-11-18T08:55:55;3.10;;;1.25;;
41897;SDS011;27576;53.366;-1.498;2022-11-18T08:58:25;2.03;;;1.00;;
41897;SDS011;27576;53.366;-1.498;2022-11-18T09:00:51;1.30;;;0.90;;
41897;SDS011;27576;53.366;-1.498;2022-11-18T09:03:16;4.53;;;1.42;;
41897;SDS011;27576;53.366;-1.498;2022-11-18T09:05:41;3.58;;;1.20;;
41897;SDS011;27576;53.366;-1.498;2022-11-18T09:08:07;1.42;;;1.10;;
41897;SDS011;27576;53.366;-1.498;2022-11-18T09:10:32;5.13;;;1.10;;
41897;SDS011;27576;53.366;-1.498;2022-11-18T09:12:58;7.20;;;1.48;;
41897;SDS011;27576;53.366;-1.498;2022-11-18T09:15:24;5.35;;;1.50;;
41897;SDS011;27576;53.366;-1.498;2022-11-18T09:17:50;1.20;;;0.80;;
41897;SDS011;27576;53.366;-1.498;2022-11-18T09:20:16;6.50;;;1.70;;
41897;SDS011;27576;53.366;-1.498;2022-11-18T09:22:41;2.65;;;1.30;;
41897;SDS011;27576;53.366;-1.498;2022-11-18T09:25:07;3.20;;;1.00;;
41897;SDS011;27576;53.366;-1.498;2022-11-18T09:27:33;3.05;;;1.27;;
41897;SDS011;27576;53.366;-1.498;2022-11-18T09:29:58;2.72;;;1.30;;
41897;SDS011;27576;53.366;-1.498;2022-11-18T09:32:23;3.97;;;1.40;;
41897;SDS011;27576;53.366;-1.498;2022-11-18T09:34:49;8.82;;;2.00;;
41897;SDS011;27576;53.366;-1.498;2022-11-18T09:37:14;2.00;;;1.10;;
41897;SDS011;27576;53.366;-1.498;2022-11-18T09:39:39;5.78;;;1.20;;
41897;SDS011;27576;53.366;-1.498;2022-11-18T09:47:48;5.57;;;1.83;;
41897;SDS011;27576;53.366;-1.498;2022-11-18T09:50:15;4.03;;;1.45;;
41897;SDS011;27576;53.366;-1.498;2022-11-18T09:55:19;5.95;;;1.70;;
41897;SDS011;27576;53.366;-1.498;2022-11-18T09:57:49;2.45;;;1.30;;
41897;SDS011;27576;53.366;-1.498;2022-11-18T10:00:21;3.33;;;1.70;;
41897;SDS011;27576;53.366;-1.498;2022-11-18T10:03:02;2.25;;;1.15;;
41897;SDS011;27576;53.366;-1.498;2022-11-18T10:05:32;4.68;;;1.10;;
41897;SDS011;27576;53.366;-1.498;2022-11-18T10:08:26;3.33;;;1.20;;
41897;SDS011;27576;53.366;-1.498;2022-11-18T10:11:00;4.00;;;1.30;;
41897;SDS011;27576;53.366;-1.498;2022-11-18T10:24:44;1.58;;;0.90;;
41897;SDS011;27576;53.366;-1.498;2022-11-18T10:27:14;2.47;;;1.10;;
41897;SDS011;27576;53.366;-1.498;2022-11-18T10:29:41;2.38;;;1.02;;
41897;SDS011;27576;53.366;-1.498;2022-11-18T10:32:10;3.58;;;0.95;;
41897;SDS011;27576;53.366;-1.498;2022-11-18T10:37:23;4.05;;;1.30;;
41897;SDS011;27576;53.366;-1.498;2022-11-18T10:39:56;4.82;;;1.40;;
41897;SDS011;27576;53.366;-1.498;2022-11-18T10:47:55;3.65;;;1.40;;
41897;SDS011;27576;53.366;-1.498;2022-11-18T10:52:55;5.18;;;1.08;;
41897;SDS011;27576;53.366;-1.498;2022-11-18T10:55:22;1.05;;;0.73;;
41897;SDS011;27576;53.366;-1.498;2022-11-18T10:57:49;1.95;;;0.80;;
41897;SDS011;27576;53.366;-1.498;2022-11-18T11:00:31;1.92;;;1.00;;
41897;SDS011;27576;53.366;-1.498;2022-11-18T11:02:58;1.92;;;0.90;;
41897;SDS011;27576;53.366;-1.498;2022-11-18T11:05:24;4.35;;;1.00;;
41897;SDS011;27576;53.366;-1.498;2022-11-18T11:08:33;5.25;;;1.27;;
41897;SDS011;27576;53.366;-1.498;2022-11-18T11:10:57;3.65;;;1.00;;
41897;SDS011;27576;53.366;-1.498;2022-11-18T11:13:24;1.40;;;0.70;;
41897;SDS011;27576;53.366;-1.498;2022-11-18T11:15:53;3.97;;;1.27;;
41897;SDS011;27576;53.366;-1.498;2022-11-18T11:18:22;3.45;;;1.00;;
41897;SDS011;27576;53.366;-1.498;2022-11-18T11:23:37;2.00;;;0.90;;
41897;SDS011;27576;53.366;-1.498;2022-11-18T11:26:03;3.75;;;1.00;;
41897;SDS011;27576;53.366;-1.498;2022-11-18T11:31:41;4.72;;;1.45;;
41897;SDS011;27576;53.366;-1.498;2022-11-18T11:39:36;3.28;;;1.25;;
41897;SDS011;27576;53.366;-1.498;2022-11-18T11:45:23;2.55;;;1.20;;
41897;SDS011;27576;53.366;-1.498;2022-11-18T11:51:17;4.15;;;1.25;;
41897;SDS011;27576;53.366;-1.498;2022-11-18T11:56:38;1.13;;;0.90;;
41897;SDS011;27576;53.366;-1.498;2022-11-18T11:59:27;1.45;;;1.10;;
41897;SDS011;27576;53.366;-1.498;2022-11-18T12:07:20;2.40;;;0.90;;
41897;SDS011;27576;53.366;-1.498;2022-11-18T12:12:29;2.08;;;0.75;;
41897;SDS011;27576;53.366;-1.498;2022-11-18T12:20:43;2.10;;;0.90;;
41897;SDS011;27576;53.366;-1.498;2022-11-18T12:23:14;1.73;;;0.95;;
41897;SDS011;27576;53.366;-1.498;2022-11-18T12:28:20;1.73;;;1.15;;
41897;SDS011;27576;53.366;-1.498;2022-11-18T12:33:47;1.60;;;1.30;;
41897;SDS011;27576;53.366;-1.498;2022-11-18T12:38:51;3.55;;;2.55;;
41897;SDS011;27576;53.366;-1.498;2022-11-18T12:44:23;2.20;;;1.70;;
41897;SDS011;27576;53.366;-1.498;2022-11-18T12:46:51;7.72;;;2.50;;
41897;SDS011;27576;53.366;-1.498;2022-11-18T12:51:46;3.95;;;1.08;;
41897;SDS011;27576;53.366;-1.498;2022-11-18T12:54:21;2.85;;;1.10;;
41897;SDS011;27576;53.366;-1.498;2022-11-18T12:56:50;1.17;;;1.00;;
41897;SDS011;27576;53.366;-1.498;2022-11-18T12:59:24;1.63;;;1.02;;
41897;SDS011;27576;53.366;-1.498;2022-11-18T13:02:01;1.65;;;0.95;;
41897;SDS011;27576;53.366;-1.498;2022-11-18T13:04:40;1.02;;;0.90;;
41897;SDS011;27576;53.366;-1.498;2022-11-18T13:07:08;1.30;;;1.10;;
41897;SDS011;27576;53.366;-1.498;2022-11-18T13:09:56;1.52;;;1.20;;
41897;SDS011;27576;53.366;-1.498;2022-11-18T13:12:24;2.15;;;1.50;;
41897;SDS011;27576;53.366;-1.498;2022-11-18T13:14:53;2.65;;;1.65;;
41897;SDS011;27576;53.366;-1.498;2022-11-18T13:17:41;3.22;;;2.15;;
41897;SDS011;27576;53.366;-1.498;2022-11-18T13:22:57;1.65;;;1.25;;
41897;SDS011;27576;53.366;-1.498;2022-11-18T13:25:47;2.83;;;1.33;;
41897;SDS011;27576;53.366;-1.498;2022-11-18T13:34:07;4.80;;;1.38;;
41897;SDS011;27576;53.366;-1.498;2022-11-18T13:36:41;7.65;;;1.48;;
41897;SDS011;27576;53.366;-1.498;2022-11-18T13:39:16;3.75;;;1.60;;
41897;SDS011;27576;53.366;-1.498;2022-11-18T13:41:46;3.05;;;1.55;;
41897;SDS011;27576;53.366;-1.498;2022-11-18T13:44:23;5.88;;;1.65;;
41897;SDS011;27576;53.366;-1.498;2022-11-18T13:46:53;2.72;;;1.25;;
41897;SDS011;27576;53.366;-1.498;2022-11-18T13:49:29;11.82;;;1.98;;
41897;SDS011;27576;53.366;-1.498;2022-11-18T13:52:07;5.25;;;1.15;;
41897;SDS011;27576;53.366;-1.498;2022-11-18T13:54:39;5.18;;;1.38;;
41897;SDS011;27576;53.366;-1.498;2022-11-18T13:57:05;2.17;;;1.00;;
41897;SDS011;27576;53.366;-1.498;2022-11-18T13:59:30;5.20;;;1.15;;
41897;SDS011;27576;53.366;-1.498;2022-11-18T14:01:58;5.20;;;1.30;;
41897;SDS011;27576;53.366;-1.498;2022-11-18T14:04:28;8.05;;;1.45;;
41897;SDS011;27576;53.366;-1.498;2022-11-18T14:09:54;3.30;;;1.52;;
41897;SDS011;27576;53.366;-1.498;2022-11-18T14:12:24;5.88;;;1.58;;
41897;SDS011;27576;53.366;-1.498;2022-11-18T14:14:52;4.63;;;1.17;;
41897;SDS011;27576;53.366;-1.498;2022-11-18T14:17:35;8.35;;;1.70;;
41897;SDS011;27576;53.366;-1.498;2022-11-18T14:20:05;4.38;;;1.40;;
41897;SDS011;27576;53.366;-1.498;2022-11-18T14:22:32;2.75;;;1.58;;
41897;SDS011;27576;53.366;-1.498;2022-11-18T14:27:49;3.22;;;1.70;;
41897;SDS011;27576;53.366;-1.498;2022-11-18T14:35:35;2.83;;;1.13;;
41897;SDS011;27576;53.366;-1.498;2022-11-18T14:38:04;4.93;;;1.27;;
41897;SDS011;27576;53.366;-1.498;2022-11-18T14:40:35;4.68;;;1.42;;
41897;SDS011;27576;53.366;-1.498;2022-11-18T14:43:00;3.80;;;1.38;;
41897;SDS011;27576;53.366;-1.498;2022-11-18T14:45:26;2.28;;;1.17;;
41897;SDS011;27576;53.366;-1.498;2022-11-18T14:47:51;2.17;;;1.55;;
41897;SDS011;27576;53.366;-1.498;2022-11-18T14:50:17;3.88;;;1.38;;
41897;SDS011;27576;53.366;-1.498;2022-11-18T14:52:42;4.30;;;1.67;;
41897;SDS011;27576;53.366;-1.498;2022-11-18T14:55:07;8.18;;;1.60;;
41897;SDS011;27576;53.366;-1.498;2022-11-18T14:57:33;5.50;;;1.58;;
41897;SDS011;27576;53.366;-1.498;2022-11-18T14:59:59;5.63;;;1.77;;
41897;SDS011;27576;53.366;-1.498;2022-11-18T15:02:24;4.38;;;1.60;;
41897;SDS011;27576;53.366;-1.498;2022-11-18T15:04:49;2.47;;;1.05;;
41897;SDS011;27576;53.366;-1.498;2022-11-18T15:07:16;3.85;;;1.30;;
41897;SDS011;27576;53.366;-1.498;2022-11-18T15:09:42;6.35;;;1.20;;
41897;SDS011;27576;53.366;-1.498;2022-11-18T15:12:07;3.85;;;1.40;;
41897;SDS011;27576;53.366;-1.498;2022-11-18T15:14:33;5.35;;;1.73;;
41897;SDS011;27576;53.366;-1.498;2022-11-18T15:16:59;5.05;;;1.48;;
41897;SDS011;27576;53.366;-1.498;2022-11-18T15:19:25;6.82;;;1.92;;
41897;SDS011;27576;53.366;-1.498;2022-11-18T15:21:51;3.92;;;1.40;;
41897;SDS011;27576;53.366;-1.498;2022-11-18T15:24:16;5.45;;;1.98;;
41897;SDS011;27576;53.366;-1.498;2022-11-18T15:26:43;6.70;;;1.90;;
41897;SDS011;27576;53.366;-1.498;2022-11-18T15:29:17;7.57;;;2.60;;
41897;SDS011;27576;53.366;-1.498;2022-11-18T15:31:47;6.97;;;2.72;;
41897;SDS011;27576;53.366;-1.498;2022-11-18T15:34:14;6.50;;;2.95;;
41897;SDS011;27576;53.366;-1.498;2022-11-18T15:36:40;14.90;;;6.05;;
41897;SDS011;27576;53.366;-1.498;2022-11-18T15:39:05;9.57;;;4.25;;
41897;SDS011;27576;53.366;-1.498;2022-11-18T15:41:32;7.55;;;3.10;;
41897;SDS011;27576;53.366;-1.498;2022-11-18T15:43:58;6.85;;;2.63;;
41897;SDS011;27576;53.366;-1.498;2022-11-18T15:46:25;6.63;;;1.85;;
41897;SDS011;27576;53.366;-1.498;2022-11-18T15:48:52;7.45;;;2.03;;
41897;SDS011;27576;53.366;-1.498;2022-11-18T15:51:19;4.35;;;1.42;;
41897;SDS011;27576;53.366;-1.498;2022-11-18T15:53:45;4.63;;;1.60;;
41897;SDS011;27576;53.366;-1.498;2022-11-18T16:01:16;5.93;;;1.65;;
41897;SDS011;27576;53.366;-1.498;2022-11-18T16:03:41;6.05;;;2.25;;
41897;SDS011;27576;53.366;-1.498;2022-11-18T16:06:07;7.65;;;2.22;;
41897;SDS011;27576;53.366;-1.498;2022-11-18T16:08:32;7.70;;;2.33;;
41897;SDS011;27576;53.366;-1.498;2022-11-18T16:10:57;5.15;;;2.30;;
41897;SDS011;27576;53.366;-1.498;2022-11-18T16:13:41;9.80;;;3.50;;
41897;SDS011;27576;53.366;-1.498;2022-11-18T16:16:07;8.27;;;3.35;;
41897;SDS011;27576;53.366;-1.498;2022-11-18T16:18:44;7.07;;;2.65;;
41897;SDS011;27576;53.366;-1.498;2022-11-18T16:21:10;6.57;;;2.25;;
41897;SDS011;27576;53.366;-1.498;2022-11-18T16:23:35;7.65;;;2.20;;
41897;SDS011;27576;53.366;-1.498;2022-11-18T16:26:00;6.97;;;2.00;;
41897;SDS011;27576;53.366;-1.498;2022-11-18T16:28:26;8.93;;;2.20;;
41897;SDS011;27576;53.366;-1.498;2022-11-18T16:30:51;8.07;;;2.80;;
41897;SDS011;27576;53.366;-1.498;2022-11-18T16:33:36;9.30;;;2.47;;
41897;SDS011;27576;53.366;-1.498;2022-11-18T16:36:01;8.73;;;2.08;;
41897;SDS011;27576;53.366;-1.498;2022-11-18T16:38:26;5.47;;;2.13;;
41897;SDS011;27576;53.366;-1.498;2022-11-18T16:40:55;4.72;;;1.83;;
41897;SDS011;27576;53.366;-1.498;2022-11-18T16:43:22;3.55;;;1.83;;
41897;SDS011;27576;53.366;-1.498;2022-11-18T16:45:51;2.90;;;1.60;;
41897;SDS011;27576;53.366;-1.498;2022-11-18T16:48:18;5.47;;;1.98;;
41897;SDS011;27576;53.366;-1.498;2022-11-18T16:50:44;7.38;;;2.63;;
41897;SDS011;27576;53.366;-1.498;2022-11-18T16:53:09;6.50;;;1.75;;
41897;SDS011;27576;53.366;-1.498;2022-11-18T16:55:34;5.47;;;2.22;;
41897;SDS011;27576;53.366;-1.498;2022-11-18T16:58:00;6.55;;;1.98;;